createdAt,value
2019-05-28T00:01:15.459Z,1.80
2019-05-28T00:03:26.386Z,1.70
2019-05-28T00:05:37.309Z,1.70
2019-05-28T00:07:48.270Z,2.63
2019-05-28T00:09:59.204Z,1.90
2019-05-28T00:12:10.129Z,2.93
2019-05-28T00:14:20.976Z,1.87
2019-05-28T00:16:31.796Z,1.70
2019-05-28T00:18:42.643Z,2.00
2019-05-28T00:20:53.504Z,2.10
2019-05-28T00:23:04.434Z,2.93
2019-05-28T00:25:15.632Z,2.97
2019-05-28T00:27:26.475Z,3.30
2019-05-28T00:29:37.311Z,1.90
2019-05-28T00:31:48.164Z,2.00
2019-05-28T00:33:59.004Z,2.20
2019-05-28T00:36:09.833Z,2.07
2019-05-28T00:38:20.679Z,2.37
2019-05-28T00:40:31.494Z,2.13
2019-05-28T00:42:42.322Z,3.00
2019-05-28T00:44:53.164Z,1.97
2019-05-28T00:47:04.085Z,2.17
2019-05-28T00:49:15.044Z,2.13
2019-05-28T00:51:26.242Z,1.70
2019-05-28T00:53:37.099Z,2.10
2019-05-28T00:55:48.328Z,2.43
2019-05-28T00:57:59.453Z,2.50
2019-05-28T01:00:10.893Z,2.23
2019-05-28T01:02:21.724Z,2.63
2019-05-28T01:04:32.574Z,2.93
2019-05-28T01:06:43.694Z,2.50
2019-05-28T01:08:54.620Z,2.47
2019-05-28T01:11:05.480Z,3.70
2019-05-28T01:13:16.394Z,3.03
2019-05-28T01:15:27.224Z,2.70
2019-05-28T01:17:38.044Z,2.67
2019-05-28T01:19:48.902Z,3.17
2019-05-28T01:22:01.787Z,3.73
2019-05-28T01:24:12.595Z,3.30
2019-05-28T01:26:23.432Z,4.10
2019-05-28T01:28:34.248Z,3.27
2019-05-28T01:30:56.160Z,3.30
2019-05-28T01:32:57.841Z,4.03
2019-05-28T01:35:09.091Z,2.67
2019-05-28T01:37:19.908Z,2.73
2019-05-28T01:39:30.747Z,3.83
2019-05-28T01:41:41.683Z,5.93
2019-05-28T01:43:52.543Z,3.47
2019-05-28T01:46:03.478Z,3.27
2019-05-28T01:48:14.326Z,5.00
2019-05-28T01:50:25.173Z,2.97
2019-05-28T01:52:36.118Z,3.17
2019-05-28T01:54:47.052Z,3.30
2019-05-28T01:56:57.898Z,3.37
2019-05-28T01:59:08.715Z,2.90
2019-05-28T02:01:19.555Z,3.13
2019-05-28T02:03:30.368Z,3.90
2019-05-28T02:05:41.200Z,4.47
2019-05-28T02:07:52.034Z,4.43
2019-05-28T02:10:06.435Z,4.00
2019-05-28T02:12:17.480Z,3.07
2019-05-28T02:14:28.309Z,3.03
2019-05-28T02:16:39.191Z,3.33
2019-05-28T02:18:50.028Z,4.07
2019-05-28T02:21:01.246Z,4.30
2019-05-28T02:23:12.084Z,7.27
2019-05-28T02:25:22.900Z,5.10
2019-05-28T02:27:33.902Z,5.37
2019-05-28T02:29:44.706Z,5.53
2019-05-28T02:31:55.533Z,5.73
2019-05-28T02:34:06.764Z,5.60
2019-05-28T02:36:17.573Z,6.00
2019-05-28T02:38:28.529Z,6.67
2019-05-28T02:40:39.438Z,6.43
2019-05-28T02:42:50.275Z,6.53
2019-05-28T02:45:01.091Z,6.90
2019-05-28T02:47:12.019Z,6.97
2019-05-28T02:49:22.998Z,6.80
2019-05-28T02:51:34.019Z,7.03
2019-05-28T02:53:44.872Z,8.77
2019-05-28T02:55:56.197Z,8.23
2019-05-28T02:58:07.558Z,7.83
2019-05-28T03:00:18.971Z,7.83
2019-05-28T03:02:32.090Z,8.67
2019-05-28T03:04:43.925Z,8.53
2019-05-28T03:06:57.051Z,10.07
2019-05-28T03:09:07.877Z,8.97
2019-05-28T03:11:18.683Z,8.33
2019-05-28T03:13:29.544Z,9.13
2019-05-28T03:15:44.170Z,9.10
2019-05-28T03:17:55.116Z,10.00
2019-05-28T03:20:06.070Z,9.60
2019-05-28T03:22:18.067Z,10.73
2019-05-28T03:24:29.514Z,9.10
2019-05-28T03:26:40.340Z,9.83
2019-05-28T03:28:51.184Z,9.37
2019-05-28T03:31:02.199Z,9.27
2019-05-28T03:33:13.165Z,9.60
2019-05-28T03:35:24.387Z,10.47
2019-05-28T03:37:35.810Z,12.27
2019-05-28T03:39:48.945Z,12.73
2019-05-28T03:41:59.775Z,11.50
2019-05-28T03:44:10.726Z,13.67
2019-05-28T03:46:21.665Z,11.77
2019-05-28T03:48:32.499Z,12.13
2019-05-28T03:50:43.338Z,12.03
2019-05-28T03:52:54.169Z,12.90
2019-05-28T03:55:05.608Z,12.63
2019-05-28T03:57:16.431Z,12.70
2019-05-28T03:59:27.371Z,12.27
2019-05-28T04:01:38.181Z,14.53
2019-05-28T04:03:49.025Z,12.97
2019-05-28T04:05:59.963Z,13.27
2019-05-28T04:08:10.811Z,14.17
2019-05-28T04:10:21.649Z,16.00
2019-05-28T04:12:32.449Z,16.60
2019-05-28T04:14:43.278Z,15.60
2019-05-28T04:16:54.124Z,13.53
2019-05-28T04:19:04.952Z,17.60
2019-05-28T04:21:15.806Z,15.47
2019-05-28T04:23:26.634Z,15.77
2019-05-28T04:25:37.482Z,15.63
2019-05-28T04:27:48.350Z,16.50
2019-05-28T04:29:59.140Z,16.87
2019-05-28T04:32:09.964Z,18.83
2019-05-28T04:34:20.796Z,17.30
2019-05-28T04:36:31.737Z,17.13
2019-05-28T04:38:42.548Z,18.87
2019-05-28T04:40:53.395Z,18.00
2019-05-28T04:43:04.235Z,18.67
2019-05-28T04:45:15.167Z,20.70
2019-05-28T04:47:26.086Z,18.00
2019-05-28T04:49:37.013Z,17.27
2019-05-28T04:51:47.863Z,19.23
2019-05-28T04:53:58.710Z,18.03
2019-05-28T04:56:09.539Z,18.20
2019-05-28T04:58:20.362Z,19.13
2019-05-28T05:00:31.212Z,19.10
2019-05-28T05:02:58.085Z,18.50
2019-05-28T05:04:54.756Z,17.07
2019-05-28T05:07:05.594Z,18.80
2019-05-28T05:09:16.407Z,17.27
2019-05-28T05:11:27.252Z,17.47
2019-05-28T05:13:38.074Z,19.77
2019-05-28T05:15:48.915Z,18.87
2019-05-28T05:17:59.733Z,18.33
2019-05-28T05:20:10.764Z,18.90
2019-05-28T05:22:21.593Z,18.30
2019-05-28T05:24:32.410Z,18.23
2019-05-28T05:26:43.232Z,18.57
2019-05-28T05:28:54.059Z,16.97
2019-05-28T05:31:05.008Z,15.33
2019-05-28T05:33:20.323Z,18.50
2019-05-28T05:35:28.687Z,21.00
2019-05-28T05:37:39.518Z,18.20
2019-05-28T05:39:50.329Z,17.97
2019-05-28T05:42:01.149Z,17.67
2019-05-28T05:44:11.995Z,14.57
2019-05-28T05:46:22.839Z,17.13
2019-05-28T05:48:33.705Z,16.07
2019-05-28T05:50:45.335Z,15.83
2019-05-28T05:52:56.464Z,14.77
2019-05-28T05:55:07.983Z,15.37
2019-05-28T05:57:18.820Z,15.53
2019-05-28T05:59:29.675Z,10.63
2019-05-28T06:01:40.495Z,11.77
2019-05-28T06:03:51.336Z,11.10
2019-05-28T06:06:02.253Z,9.40
2019-05-28T06:08:13.123Z,10.00
2019-05-28T06:10:23.922Z,9.10
2019-05-28T06:12:34.833Z,9.63
2019-05-28T06:14:45.679Z,10.50
2019-05-28T06:16:56.531Z,9.57
2019-05-28T06:19:07.509Z,11.77
2019-05-28T06:21:19.151Z,9.40
2019-05-28T06:23:30.377Z,11.57
2019-05-28T06:25:41.193Z,8.90
2019-05-28T06:27:52.030Z,8.03
2019-05-28T06:30:06.576Z,8.30
2019-05-28T06:32:17.500Z,8.23
2019-05-28T06:34:28.352Z,5.57
2019-05-28T06:36:39.161Z,6.93
2019-05-28T06:38:50.018Z,6.77
2019-05-28T06:41:00.840Z,6.97
2019-05-28T06:43:11.661Z,6.50
2019-05-28T06:45:22.617Z,5.43
2019-05-28T06:47:33.456Z,5.40
2019-05-28T06:49:44.318Z,5.90
2019-05-28T06:51:55.147Z,7.80
2019-05-28T06:54:06.073Z,5.00
2019-05-28T06:56:16.975Z,7.77
2019-05-28T06:58:38.708Z,5.60
2019-05-28T07:00:40.615Z,5.17
2019-05-28T07:02:51.480Z,5.23
2019-05-28T07:05:06.819Z,4.60
2019-05-28T07:07:17.637Z,6.10
2019-05-28T07:09:28.484Z,5.83
2019-05-28T07:11:39.308Z,4.93
2019-05-28T07:13:50.141Z,5.37
2019-05-28T07:16:01.088Z,4.27
2019-05-28T07:18:11.916Z,4.30
2019-05-28T07:20:22.771Z,4.40
2019-05-28T07:22:33.678Z,5.57
2019-05-28T07:24:44.565Z,5.37
2019-05-28T07:26:56.175Z,6.07
2019-05-28T07:29:07.001Z,5.43
2019-05-28T07:31:17.869Z,5.00
2019-05-28T07:33:28.685Z,6.37
2019-05-28T07:35:45.714Z,5.40
2019-05-28T07:37:54.187Z,5.30
2019-05-28T07:40:05.917Z,5.23
2019-05-28T07:42:31.830Z,6.97
2019-05-28T07:44:29.489Z,6.37
2019-05-28T07:46:40.365Z,5.40
2019-05-28T07:48:51.337Z,4.87
2019-05-28T07:51:02.286Z,5.03
2019-05-28T07:53:13.134Z,5.67
2019-05-28T07:55:24.045Z,5.07
2019-05-28T07:57:35.067Z,7.43
2019-05-28T07:59:45.843Z,5.10
2019-05-28T08:01:56.781Z,5.23
2019-05-28T08:04:07.749Z,4.60
2019-05-28T08:06:18.666Z,5.50
2019-05-28T08:08:29.498Z,4.40
2019-05-28T08:10:40.375Z,4.53
2019-05-28T08:12:51.284Z,4.83
2019-05-28T08:15:03.229Z,5.60
2019-05-28T08:17:14.308Z,5.27
2019-05-28T08:19:25.132Z,5.77
2019-05-28T08:21:35.963Z,5.23
2019-05-28T08:23:46.780Z,5.47
2019-05-28T08:25:57.608Z,5.33
2019-05-28T08:28:19.489Z,7.30
2019-05-28T08:30:21.308Z,6.77
2019-05-28T08:32:32.148Z,5.87
2019-05-28T08:34:42.990Z,4.10
2019-05-28T08:37:05.286Z,4.90
2019-05-28T08:39:06.772Z,4.90
2019-05-28T08:41:17.567Z,5.40
2019-05-28T08:43:28.403Z,5.23
2019-05-28T08:45:42.449Z,4.60
2019-05-28T08:47:52.015Z,5.20
2019-05-28T08:50:06.302Z,4.97
2019-05-28T08:52:17.149Z,4.67
2019-05-28T08:54:29.982Z,4.50
2019-05-28T08:56:41.096Z,4.97
2019-05-28T08:58:51.965Z,5.57
2019-05-28T09:01:03.041Z,7.23
2019-05-28T09:03:14.832Z,4.47
2019-05-28T09:05:26.892Z,5.77
2019-05-28T09:07:37.930Z,6.33
2019-05-28T09:09:48.743Z,4.43
2019-05-28T09:11:59.696Z,4.17
2019-05-28T09:14:10.686Z,4.93
2019-05-28T09:16:21.537Z,3.73
2019-05-28T09:18:32.392Z,4.17
2019-05-28T09:20:43.323Z,5.90
2019-05-28T09:22:54.294Z,4.73
2019-05-28T09:25:05.636Z,5.93
2019-05-28T09:27:16.557Z,5.57
2019-05-28T09:29:27.420Z,5.27
2019-05-28T09:31:38.256Z,6.47
2019-05-28T09:33:49.109Z,5.73
2019-05-28T09:36:08.310Z,7.80
2019-05-28T09:38:12.668Z,7.90
2019-05-28T09:40:23.658Z,7.13
2019-05-28T09:42:34.578Z,6.53
2019-05-28T09:44:45.468Z,7.40
2019-05-28T09:46:56.288Z,7.23
2019-05-28T09:49:07.168Z,7.37
2019-05-28T09:51:17.996Z,6.40
2019-05-28T09:53:28.948Z,6.57
2019-05-28T09:55:39.809Z,6.83
2019-05-28T09:57:50.651Z,4.80
2019-05-28T10:00:04.706Z,7.93
2019-05-28T10:02:15.738Z,4.70
2019-05-28T10:04:43.677Z,4.60
2019-05-28T10:06:41.679Z,5.43
2019-05-28T10:08:52.173Z,7.50
2019-05-28T10:11:03.134Z,4.27
2019-05-28T10:13:13.962Z,5.27
2019-05-28T10:15:24.928Z,5.50
2019-05-28T10:17:35.843Z,3.43
2019-05-28T10:19:46.901Z,3.53
2019-05-28T10:21:57.795Z,3.40
2019-05-28T10:24:08.639Z,2.83
2019-05-28T10:26:19.517Z,3.30
2019-05-28T10:28:30.351Z,5.47
2019-05-28T10:30:41.391Z,2.43
2019-05-28T10:32:52.316Z,2.23
2019-05-28T10:35:04.664Z,3.77
2019-05-28T10:37:15.502Z,5.60
2019-05-28T10:39:26.348Z,2.90
2019-05-28T10:41:37.190Z,3.23
2019-05-28T10:43:48.026Z,1.73
2019-05-28T10:45:59.188Z,2.20
2019-05-28T10:48:10.129Z,2.10
2019-05-28T10:50:21.047Z,2.70
2019-05-28T10:52:32.030Z,2.13
2019-05-28T10:54:42.960Z,3.40
2019-05-28T10:56:53.796Z,2.30
2019-05-28T10:59:04.867Z,3.17
2019-05-28T11:01:15.804Z,2.40
2019-05-28T11:03:26.712Z,1.63
2019-05-28T11:05:37.532Z,2.43
2019-05-28T11:07:48.474Z,4.57
2019-05-28T11:09:59.298Z,4.00
2019-05-28T11:12:10.240Z,3.50
2019-05-28T11:14:21.051Z,3.43
2019-05-28T11:16:31.892Z,1.83
2019-05-28T11:18:42.737Z,3.27
2019-05-28T11:20:53.674Z,3.20
2019-05-28T11:23:04.513Z,4.40
2019-05-28T11:25:15.697Z,5.70
2019-05-28T11:27:26.542Z,3.03
2019-05-28T11:29:37.385Z,2.43
2019-05-28T11:31:48.224Z,2.73
2019-05-28T11:33:59.192Z,4.33
2019-05-28T11:36:10.032Z,2.77
2019-05-28T11:38:20.960Z,3.37
2019-05-28T11:40:31.901Z,3.63
2019-05-28T11:42:42.744Z,2.47
2019-05-28T11:44:53.585Z,3.03
2019-05-28T11:47:06.356Z,2.33
2019-05-28T11:49:17.180Z,3.97
2019-05-28T11:51:28.009Z,2.83
2019-05-28T11:53:38.832Z,3.50
2019-05-28T11:55:50.141Z,4.00
2019-05-28T11:58:00.990Z,3.93
2019-05-28T12:00:13.807Z,5.40
2019-05-28T12:02:24.648Z,1.80
2019-05-28T12:04:35.690Z,4.27
2019-05-28T12:06:46.514Z,3.73
2019-05-28T12:08:57.360Z,3.53
2019-05-28T12:11:08.190Z,5.03
2019-05-28T12:13:19.147Z,2.80
2019-05-28T12:15:30.079Z,3.13
2019-05-28T12:17:44.688Z,5.00
2019-05-28T12:19:53.767Z,3.23
2019-05-28T12:22:04.746Z,3.70
2019-05-28T12:24:15.611Z,3.07
2019-05-28T12:26:26.445Z,4.63
2019-05-28T12:28:38.531Z,2.83
2019-05-28T12:30:49.563Z,2.70
2019-05-28T12:33:00.645Z,3.73
2019-05-28T12:35:27.385Z,2.90
2019-05-28T12:37:24.470Z,4.87
2019-05-28T12:39:35.314Z,2.07
2019-05-28T12:42:01.047Z,1.87
2019-05-28T12:43:58.906Z,2.73
2019-05-28T12:46:09.744Z,3.13
2019-05-28T12:48:20.588Z,4.10
2019-05-28T12:50:31.443Z,2.57
2019-05-28T12:52:46.487Z,2.07
2019-05-28T12:54:55.113Z,1.67
2019-05-28T12:57:05.944Z,1.33
2019-05-28T12:59:16.768Z,4.67
2019-05-28T13:01:27.705Z,3.17
2019-05-28T13:03:38.545Z,2.73
2019-05-28T13:05:49.428Z,1.63
2019-05-28T13:08:10.266Z,3.13
2019-05-28T13:10:13.577Z,2.30
2019-05-28T13:12:24.427Z,2.87
2019-05-28T13:14:35.269Z,2.37
2019-05-28T13:16:46.097Z,2.90
2019-05-28T13:18:56.892Z,2.20
2019-05-28T13:21:07.742Z,3.33
2019-05-28T13:23:18.578Z,2.80
2019-05-28T13:25:29.436Z,2.80
2019-05-28T13:27:40.288Z,3.37
2019-05-28T13:29:51.100Z,4.00
2019-05-28T13:32:07.608Z,2.10
2019-05-28T13:34:14.875Z,1.47
2019-05-28T13:36:25.733Z,4.60
2019-05-28T13:38:36.562Z,2.70
2019-05-28T13:40:47.486Z,1.90
2019-05-28T13:42:58.330Z,3.80
2019-05-28T13:45:09.748Z,3.30
2019-05-28T13:47:32.890Z,4.03
2019-05-28T13:49:33.452Z,3.93
2019-05-28T13:51:44.301Z,4.63
2019-05-28T13:53:55.226Z,2.60
2019-05-28T13:56:06.180Z,3.37
2019-05-28T13:58:17.025Z,6.17
2019-05-28T14:00:28.133Z,2.70
2019-05-28T14:02:39.694Z,3.33
2019-05-28T14:04:50.516Z,5.37
2019-05-28T14:07:01.387Z,3.17
2019-05-28T14:09:12.329Z,2.63
2019-05-28T14:11:23.176Z,1.93
2019-05-28T14:13:34.029Z,3.03
2019-05-28T14:15:44.837Z,5.07
2019-05-28T14:17:55.680Z,3.27
2019-05-28T14:20:09.276Z,2.00
2019-05-28T14:22:33.437Z,3.27
2019-05-28T14:24:33.204Z,1.83
2019-05-28T14:26:45.941Z,6.50
2019-05-28T14:28:56.766Z,4.00
2019-05-28T14:31:07.624Z,3.67
2019-05-28T14:33:18.590Z,2.17
2019-05-28T14:35:29.634Z,3.93
2019-05-28T14:37:40.588Z,1.67
2019-05-28T14:39:51.559Z,2.00
2019-05-28T14:42:02.526Z,2.70
2019-05-28T14:44:13.747Z,3.07
2019-05-28T14:46:24.722Z,2.00
2019-05-28T14:48:35.583Z,3.03
2019-05-28T14:50:46.399Z,2.40
2019-05-28T14:52:57.243Z,1.93
2019-05-28T14:55:08.659Z,3.33
2019-05-28T14:57:19.510Z,3.83
2019-05-28T14:59:30.366Z,2.03
2019-05-28T15:01:41.189Z,1.80
2019-05-28T15:03:52.026Z,2.93
2019-05-28T15:06:02.954Z,1.60
2019-05-28T15:08:13.823Z,3.93
2019-05-28T15:10:24.722Z,4.07
2019-05-28T15:12:35.598Z,3.57
2019-05-28T15:14:46.440Z,3.10
2019-05-28T15:16:57.257Z,3.17
2019-05-28T15:19:08.101Z,3.00
2019-05-28T15:21:18.956Z,5.07
2019-05-28T15:23:29.830Z,1.23
2019-05-28T15:25:40.620Z,3.27
2019-05-28T15:27:51.603Z,2.73
2019-05-28T15:30:04.916Z,2.30
2019-05-28T15:32:15.829Z,2.20
2019-05-28T15:34:26.770Z,1.90
2019-05-28T15:36:37.596Z,2.27
2019-05-28T15:38:48.544Z,1.07
2019-05-28T15:40:59.363Z,3.13
2019-05-28T15:43:10.177Z,4.53
2019-05-28T15:45:21.122Z,3.23
2019-05-28T15:47:31.998Z,5.37
2019-05-28T15:49:42.849Z,2.00
2019-05-28T15:52:06.948Z,2.80
2019-05-28T15:54:06.452Z,2.07
2019-05-28T15:56:17.264Z,2.70
2019-05-28T15:58:28.126Z,4.60
2019-05-28T16:00:38.970Z,2.87
2019-05-28T16:02:50.815Z,3.63
2019-05-28T16:05:01.746Z,2.37
2019-05-28T16:07:12.573Z,4.00
2019-05-28T16:09:23.422Z,3.87
2019-05-28T16:11:34.392Z,3.27
2019-05-28T16:13:45.392Z,2.27
2019-05-28T16:15:56.327Z,1.73
2019-05-28T16:18:07.160Z,5.60
2019-05-28T16:20:18.228Z,4.57
2019-05-28T16:22:29.042Z,4.80
2019-05-28T16:24:40.001Z,2.90
2019-05-28T16:26:50.986Z,1.63
2019-05-28T16:29:01.849Z,17.23
2019-05-28T16:31:13.615Z,3.03
2019-05-28T16:33:24.625Z,2.63
2019-05-28T16:35:35.520Z,3.00
2019-05-28T16:37:46.445Z,2.30
2019-05-28T16:40:13.514Z,2.87
2019-05-28T16:42:09.987Z,2.33
2019-05-28T16:44:20.896Z,2.70
2019-05-28T16:46:31.731Z,3.10
2019-05-28T16:48:42.579Z,5.77
2019-05-28T16:50:53.531Z,3.70
2019-05-28T16:53:04.366Z,2.93
2019-05-28T16:55:15.640Z,3.50
2019-05-28T16:57:26.498Z,2.20
2019-05-28T16:59:37.350Z,3.80
2019-05-28T17:01:48.198Z,5.90
2019-05-28T17:03:59.048Z,3.60
2019-05-28T17:06:09.900Z,5.43
2019-05-28T17:08:20.768Z,3.57
2019-05-28T17:10:33.613Z,1.67
2019-05-28T17:12:44.490Z,2.47
2019-05-28T17:14:55.318Z,3.67
2019-05-28T17:17:06.185Z,4.03
2019-05-28T17:19:17.083Z,5.03
2019-05-28T17:21:28.049Z,3.70
2019-05-28T17:23:38.890Z,3.67
2019-05-28T17:25:49.815Z,3.60
2019-05-28T17:28:00.797Z,3.07
2019-05-28T17:30:20.597Z,4.07
2019-05-28T17:32:24.746Z,3.40
2019-05-28T17:34:35.594Z,3.37
2019-05-28T17:36:46.503Z,2.23
2019-05-28T17:38:57.450Z,3.80
2019-05-28T17:41:08.292Z,6.40
2019-05-28T17:43:19.266Z,3.87
2019-05-28T17:45:30.126Z,2.23
2019-05-28T17:47:43.765Z,2.67
2019-05-28T17:49:53.773Z,1.80
2019-05-28T17:52:04.741Z,2.37
2019-05-28T17:54:15.604Z,3.67
2019-05-28T17:56:26.464Z,3.23
2019-05-28T17:58:37.379Z,2.20
2019-05-28T18:00:48.250Z,1.50
2019-05-28T18:02:59.147Z,3.00
2019-05-28T18:05:10.110Z,1.83
2019-05-28T18:07:20.967Z,3.27
2019-05-28T18:09:31.971Z,2.63
2019-05-28T18:11:42.881Z,1.27
2019-05-28T18:13:53.789Z,1.90
2019-05-28T18:16:04.672Z,2.90
2019-05-28T18:18:15.590Z,2.10
2019-05-28T18:20:26.417Z,2.90
2019-05-28T18:22:37.294Z,1.67
2019-05-28T18:24:48.157Z,2.43
2019-05-28T18:26:58.993Z,1.87
2019-05-28T18:29:09.839Z,1.33
2019-05-28T18:31:20.784Z,3.27
2019-05-28T18:33:31.652Z,2.67
2019-05-28T18:35:42.621Z,1.67
2019-05-28T18:38:03.378Z,2.60
2019-05-28T18:40:08.539Z,2.63
2019-05-28T18:42:19.438Z,2.07
2019-05-28T18:44:30.354Z,0.93
2019-05-28T18:46:41.188Z,2.30
2019-05-28T18:48:52.076Z,2.10
2019-05-28T18:51:02.930Z,2.33
2019-05-28T18:53:13.901Z,2.00
2019-05-28T18:55:24.738Z,2.27
2019-05-28T18:57:35.568Z,1.57
2019-05-28T18:59:46.518Z,2.93
2019-05-28T19:01:59.232Z,3.53
2019-05-28T19:04:10.397Z,1.70
2019-05-28T19:06:21.327Z,1.00
2019-05-28T19:08:32.308Z,0.90
2019-05-28T19:10:43.180Z,1.30
2019-05-28T19:12:54.055Z,0.97
2019-05-28T19:15:06.039Z,0.90
2019-05-28T19:17:16.892Z,1.50
2019-05-28T19:19:27.760Z,2.37
2019-05-28T19:21:38.668Z,2.00
2019-05-28T19:23:49.523Z,2.10
2019-05-28T19:26:00.413Z,3.67
2019-05-28T19:28:11.392Z,3.73
2019-05-28T19:30:32.953Z,1.60
2019-05-28T19:32:45.701Z,2.13
2019-05-28T19:34:56.756Z,1.57
2019-05-28T19:37:08.115Z,2.30
2019-05-28T19:39:22.320Z,0.83
2019-05-28T19:41:35.502Z,0.73
2019-05-28T19:43:46.758Z,1.43
2019-05-28T19:45:57.630Z,1.97
2019-05-28T19:48:08.574Z,1.20
2019-05-28T19:50:19.473Z,2.10
2019-05-28T19:52:30.307Z,2.00
2019-05-28T19:54:41.152Z,2.30
2019-05-28T19:56:52.887Z,1.80
2019-05-28T19:59:03.978Z,2.60
2019-05-28T20:01:14.922Z,2.33
2019-05-28T20:03:25.797Z,2.80
2019-05-28T20:05:36.735Z,2.27
2019-05-28T20:07:47.671Z,1.87
2019-05-28T20:09:58.635Z,1.77
2019-05-28T20:12:12.769Z,2.33
2019-05-28T20:14:22.332Z,2.70
2019-05-28T20:16:33.189Z,2.10
2019-05-28T20:18:45.168Z,1.73
2019-05-28T20:20:56.194Z,1.53
2019-05-28T20:23:07.036Z,2.60
2019-05-28T20:25:18.082Z,1.00
2019-05-28T20:27:29.034Z,3.87
2019-05-28T20:29:39.880Z,1.50
2019-05-28T20:31:50.712Z,2.27
2019-05-28T20:34:01.554Z,2.70
2019-05-28T20:36:12.395Z,2.27
2019-05-28T20:38:23.249Z,1.90
2019-05-28T20:40:34.226Z,1.90
2019-05-28T20:42:45.172Z,1.60
2019-05-28T20:44:56.511Z,2.23
2019-05-28T20:47:07.463Z,1.67
2019-05-28T20:49:18.316Z,1.77
2019-05-28T20:51:29.182Z,1.30
2019-05-28T20:53:40.042Z,2.23
2019-05-28T20:55:52.057Z,1.83
2019-05-28T20:58:03.143Z,1.23
2019-05-28T21:00:15.373Z,2.03
2019-05-28T21:02:26.270Z,1.40
2019-05-28T21:04:37.312Z,2.63
2019-05-28T21:06:48.149Z,2.97
2019-05-28T21:08:58.976Z,1.20
2019-05-28T21:11:09.823Z,1.50
2019-05-28T21:13:20.664Z,2.23
2019-05-28T21:15:31.501Z,1.87
2019-05-28T21:17:42.332Z,1.47
2019-05-28T21:19:53.312Z,1.30
2019-05-28T21:22:04.228Z,2.43
2019-05-28T21:24:15.156Z,1.40
2019-05-28T21:26:26.011Z,2.87
2019-05-28T21:28:36.879Z,2.40
2019-05-28T21:30:47.690Z,4.17
2019-05-28T21:32:58.849Z,1.40
2019-05-28T21:35:09.863Z,3.00
2019-05-28T21:37:20.838Z,1.10
2019-05-28T21:39:31.775Z,1.40
2019-05-28T21:41:42.637Z,1.20
2019-05-28T21:43:53.797Z,2.23
2019-05-28T21:46:04.690Z,2.20
2019-05-28T21:48:15.562Z,2.90
2019-05-28T21:50:26.387Z,2.43
2019-05-28T21:52:37.206Z,2.67
2019-05-28T21:54:48.061Z,2.43
2019-05-28T21:56:59.401Z,2.03
2019-05-28T21:59:10.326Z,2.73
2019-05-28T22:01:23.951Z,1.67
2019-05-28T22:03:34.884Z,1.57
2019-05-28T22:05:45.729Z,1.57
2019-05-28T22:07:57.295Z,2.83
2019-05-28T22:10:08.729Z,2.97
2019-05-28T22:12:19.609Z,2.23
2019-05-28T22:14:30.464Z,1.57
2019-05-28T22:16:41.285Z,3.13
2019-05-28T22:18:52.098Z,2.57
2019-05-28T22:21:03.047Z,2.53
2019-05-28T22:23:13.992Z,1.97
2019-05-28T22:25:24.815Z,1.73
2019-05-28T22:27:35.733Z,1.10
2019-05-28T22:29:46.588Z,1.77
2019-05-28T22:31:58.406Z,2.40
2019-05-28T22:34:09.621Z,2.57
2019-05-28T22:36:20.465Z,1.30
2019-05-28T22:38:31.383Z,3.37
2019-05-28T22:40:43.541Z,1.63
2019-05-28T22:42:54.352Z,3.00
2019-05-28T22:45:05.699Z,4.63
2019-05-28T22:47:16.543Z,1.70
2019-05-28T22:49:27.404Z,1.43
2019-05-28T22:51:38.278Z,3.10
2019-05-28T22:53:49.112Z,2.40
2019-05-28T22:56:00.069Z,1.97
2019-05-28T22:58:10.876Z,1.17
2019-05-28T23:00:23.778Z,2.33
2019-05-28T23:02:34.742Z,3.73
2019-05-28T23:04:45.549Z,3.70
2019-05-28T23:06:56.401Z,2.80
2019-05-28T23:09:07.788Z,1.23
2019-05-28T23:11:18.783Z,1.40
2019-05-28T23:13:46.817Z,1.77
2019-05-28T23:15:52.094Z,2.50
2019-05-28T23:18:04.370Z,1.57
2019-05-28T23:20:15.577Z,1.23
2019-05-28T23:22:26.427Z,1.90
2019-05-28T23:24:47.498Z,2.17
2019-05-28T23:26:58.334Z,1.70
2019-05-28T23:29:20.354Z,1.50
2019-05-28T23:31:31.185Z,1.23
2019-05-28T23:33:42.003Z,2.27
2019-05-28T23:35:52.835Z,3.47
2019-05-28T23:38:04.868Z,1.10
2019-05-28T23:40:15.840Z,1.43
2019-05-28T23:42:26.697Z,1.47
2019-05-28T23:44:37.520Z,1.90
2019-05-28T23:46:48.335Z,1.57
2019-05-28T23:48:59.199Z,2.13
2019-05-28T23:51:10.468Z,2.00
2019-05-28T23:53:21.389Z,2.57
2019-05-28T23:55:32.211Z,2.27
2019-05-28T23:57:43.057Z,2.03
2019-05-28T23:59:53.887Z,1.53
